createdAt,value
2017-11-27T00:01:31.264Z,54.0
2017-11-27T00:11:27.527Z,57.0
2017-11-27T00:21:31.713Z,55.8
2017-11-27T00:31:31.337Z,53.1
2017-11-27T00:41:31.642Z,59.0
2017-11-27T01:01:52.568Z,60.2
2017-11-27T01:11:31.621Z,58.9
2017-11-27T01:31:47.010Z,69.0
2017-11-27T01:41:33.514Z,69.1
2017-11-27T01:51:32.957Z,66.1
2017-11-27T02:01:33.175Z,67.3
2017-11-27T02:11:31.777Z,62.3
2017-11-27T02:22:11.954Z,62.9
2017-11-27T02:31:31.935Z,58.0
2017-11-27T02:41:32.803Z,60.2
2017-11-27T02:51:31.785Z,58.5
2017-11-27T03:21:26.872Z,55.2
2017-11-27T03:32:11.697Z,57.5
2017-11-27T03:41:37.290Z,55.3
2017-11-27T04:11:26.179Z,46.2
2017-11-27T04:31:31.220Z,47.0
2017-11-27T04:41:33.200Z,42.5
2017-11-27T04:51:31.947Z,44.6
2017-11-27T05:12:12.465Z,47.6
2017-11-27T05:21:31.950Z,45.5
2017-11-27T05:31:27.050Z,43.9
2017-11-27T06:01:43.073Z,49.1
2017-11-27T06:22:22.712Z,43.9
2017-11-27T07:02:13.328Z,41.2
2017-11-27T07:11:27.728Z,38.0
2017-11-27T08:42:22.150Z,22.0
2017-11-27T08:51:57.959Z,17.7
2017-11-27T09:31:33.843Z,20.9
2017-11-27T09:52:04.071Z,14.2
2017-11-27T10:01:33.271Z,18.4
2017-11-27T10:11:33.273Z,18.7
2017-11-27T11:31:36.537Z,24.0
2017-11-27T12:11:33.814Z,23.7
2017-11-27T12:31:35.224Z,20.1
2017-11-27T12:41:34.508Z,21.4
2017-11-27T13:11:57.322Z,20.6
2017-11-27T13:42:06.123Z,21.0
2017-11-27T15:11:30.841Z,23.8
2017-11-27T15:21:43.927Z,23.3
2017-11-27T15:51:30.505Z,26.3
2017-11-27T16:21:26.838Z,26.6
2017-11-27T16:32:17.866Z,25.2
2017-11-27T16:41:43.944Z,23.7
2017-11-27T16:51:28.169Z,23.8
2017-11-27T17:01:52.064Z,22.6
2017-11-27T17:11:47.317Z,22.8
2017-11-27T17:31:26.489Z,21.6
2017-11-27T18:02:07.925Z,22.4
2017-11-27T18:51:26.483Z,29.3
2017-11-27T19:22:57.804Z,35.0
2017-11-27T19:31:27.893Z,38.8
2017-11-27T19:41:26.572Z,38.0
2017-11-27T19:51:26.575Z,34.8
2017-11-27T20:01:26.226Z,42.7
2017-11-27T20:11:26.597Z,40.0
2017-11-27T20:21:26.498Z,41.5
2017-11-27T20:31:25.973Z,43.1
2017-11-27T20:41:26.665Z,45.8
2017-11-27T20:51:26.602Z,45.7
2017-11-27T21:01:26.537Z,44.9
2017-11-27T21:11:26.284Z,41.1
2017-11-27T21:21:27.574Z,40.2
2017-11-27T21:31:26.487Z,37.1
2017-11-27T21:41:26.800Z,38.5
2017-11-27T21:51:26.500Z,36.1
2017-11-27T22:01:27.237Z,36.0
2017-11-27T22:11:27.009Z,37.0
2017-11-27T22:21:27.518Z,36.5
2017-11-27T22:31:26.972Z,37.4
2017-11-27T22:41:26.681Z,35.7
2017-11-27T22:51:25.862Z,34.7
2017-11-27T23:01:28.430Z,35.3
2017-11-27T23:11:26.411Z,31.9
2017-11-27T23:21:25.874Z,29.8
2017-11-27T23:31:26.083Z,29.4
2017-11-27T23:41:26.168Z,28.3
2017-11-27T23:51:25.981Z,25.7
